Time;durP1;ratioP1;P1;durP2;ratioP2;P2;SDS_P1;SDS_P2;PMS_P1;PMS_P2;Temp;Humidity;BMP_temperature;BMP_pressure;BME280_temperature;BME280_humidity;BME280_pressure;Samples;Min_cycle;Max_cycle;Signal;HPM_P1;HPM_P2
2022/12/27 00:01:22;;;;;;;10.27;2.38;;;5.00;99.90;;;;;;5092246;28;20132;-74
2022/12/27 00:03:48;;;;;;;12.60;2.67;;;4.50;99.90;;;;;;5091180;28;20041;-73
2022/12/27 00:06:18;;;;;;;13.85;2.45;;;4.30;99.90;;;;;;5092177;28;20044;-74
2022/12/27 00:08:44;;;;;;;11.57;2.50;;;4.50;99.90;;;;;;5091828;28;20119;-72
2022/12/27 00:11:15;;;;;;;19.48;2.60;;;4.90;99.90;;;;;;5092095;28;20047;-72
2022/12/27 00:13:41;;;;;;;13.68;2.60;;;4.70;99.90;;;;;;5092107;28;20055;-73
2022/12/27 00:16:13;;;;;;;18.45;3.22;;;4.60;99.90;;;;;;5092061;28;20546;-72
2022/12/27 00:18:40;;;;;;;9.43;2.20;;;4.80;99.90;;;;;;5090944;28;20054;-73
2022/12/27 00:21:07;;;;;;;16.70;2.53;;;4.80;99.90;;;;;;5091929;28;20052;-74
2022/12/27 00:23:34;;;;;;;18.02;3.03;;;;;;;;;;5091702;28;20127;-70
2022/12/27 00:26:05;;;;;;;19.88;2.70;;;;;;;;;;5091923;28;20048;-72
2022/12/27 00:28:32;;;;;;;13.45;2.78;;;5.00;99.90;;;;;;5091419;28;20109;-73
2022/12/27 00:30:59;;;;;;;14.98;2.60;;;;;;;;;;5091862;28;20060;-73
2022/12/27 00:33:25;;;;;;;16.63;2.92;;;5.10;99.90;;;;;;5091926;28;20052;-73
2022/12/27 00:35:51;;;;;;;18.05;3.35;;;;;;;;;;5090336;28;20063;-73
2022/12/27 00:38:18;;;;;;;15.40;2.85;;;4.90;99.90;;;;;;5091894;28;20373;-73
2022/12/27 00:40:44;;;;;;;21.15;2.47;;;4.90;99.90;;;;;;5091878;28;20044;-74
2022/12/27 00:43:09;;;;;;;20.75;3.05;;;4.50;99.90;;;;;;5092067;28;20248;-73
2022/12/27 00:45:35;;;;;;;22.90;3.17;;;;;;;;;;5092022;28;20058;-73
2022/12/27 00:48:01;;;;;;;12.63;2.70;;;4.50;99.90;;;;;;5091732;28;20399;-73
2022/12/27 00:50:27;;;;;;;17.35;3.35;;;5.00;99.90;;;;;;5093925;28;20052;-73
2022/12/27 00:52:52;;;;;;;16.98;2.95;;;4.80;99.90;;;;;;5095853;28;20459;-71
2022/12/27 00:55:18;;;;;;;13.23;2.53;;;4.60;99.90;;;;;;5095725;28;20056;-73
2022/12/27 00:57:44;;;;;;;16.88;3.10;;;4.50;99.90;;;;;;5077823;28;20093;-72
2022/12/27 01:00:10;;;;;;;14.70;2.95;;;4.60;99.90;;;;;;5105784;28;20065;-72
2022/12/27 01:02:36;;;;;;;;;;;4.80;99.90;;;;;;5114991;28;20051;-74
2022/12/27 01:05:02;;;;;;;14.80;2.65;;;5.00;99.90;;;;;;5115568;28;19924;-71
2022/12/27 01:07:28;;;;;;;12.57;2.22;;;5.00;99.90;;;;;;5114790;28;20052;-72
2022/12/27 01:09:53;;;;;;;13.45;2.28;;;5.10;99.90;;;;;;5114884;28;20062;-73
2022/12/27 01:12:19;;;;;;;9.68;2.10;;;5.30;99.90;;;;;;5115826;27;20048;-72
2022/12/27 01:14:45;;;;;;;14.25;2.70;;;5.30;99.90;;;;;;5114552;28;20058;-73
2022/12/27 01:17:10;;;;;;;16.30;2.53;;;5.40;99.90;;;;;;5115752;28;20039;-73
2022/12/27 01:19:37;;;;;;;13.00;2.42;;;5.40;99.90;;;;;;5115400;28;20294;-73
2022/12/27 01:22:04;;;;;;;8.82;2.50;;;5.30;99.90;;;;;;5115639;28;20068;-74
2022/12/27 01:24:31;;;;;;;11.00;3.05;;;;;;;;;;5115616;28;20051;-70
2022/12/27 01:26:56;;;;;;;19.27;2.85;;;5.40;99.90;;;;;;5115220;28;20054;-72
2022/12/27 01:29:22;;;;;;;13.00;2.50;;;5.30;99.90;;;;;;5115609;28;20396;-71
2022/12/27 01:31:48;;;;;;;20.80;2.88;;;5.50;99.90;;;;;;5115433;28;20062;-72
2022/12/27 01:34:15;;;;;;;16.17;3.13;;;;;;;;;;5115187;28;20395;-69
2022/12/27 01:36:42;;;;;;;21.58;2.38;;;5.40;99.90;;;;;;5115431;28;20048;-69
2022/12/27 01:39:09;;;;;;;;;;;4.90;99.90;;;;;;5114749;28;20377;-74
2022/12/27 01:44:58;;;;;;;15.30;2.97;;;5.10;99.90;;;;;;5114344;28;20139;-75
2022/12/27 01:47:45;;;;;;;23.55;2.65;;;5.20;99.90;;;;;;5114848;28;20407;-73
2022/12/27 01:50:34;;;;;;;11.15;2.35;;;5.40;99.90;;;;;;5114904;28;20452;-75
2022/12/27 01:53:05;;;;;;;16.60;2.88;;;5.40;99.90;;;;;;5115246;28;20058;-76
2022/12/27 01:55:57;;;;;;;21.30;2.92;;;5.10;99.90;;;;;;5113985;28;20058;-75
2022/12/27 01:58:39;;;;;;;15.95;2.70;;;5.40;99.90;;;;;;5112347;28;20105;-74
2022/12/27 02:01:10;;;;;;;19.50;2.67;;;5.00;99.90;;;;;;5114519;28;20053;-75
2022/12/27 02:03:43;;;;;;;18.38;2.55;;;5.00;99.90;;;;;;5113261;28;20061;-74
2022/12/27 02:06:11;;;;;;;9.23;2.60;;;4.90;99.90;;;;;;5113626;28;20083;-73
2022/12/27 02:08:48;;;;;;;15.85;2.60;;;5.00;99.90;;;;;;5113424;28;20052;-75
2022/12/27 02:11:16;;;;;;;19.48;3.10;;;5.10;99.90;;;;;;5114851;28;20535;-74
2022/12/27 02:13:45;;;;;;;19.33;3.47;;;5.40;99.90;;;;;;5114712;28;20168;-74
2022/12/27 02:16:17;;;;;;;21.73;2.88;;;5.30;99.90;;;;;;5113636;28;20053;-74
2022/12/27 02:18:43;;;;;;;20.23;3.55;;;5.40;99.90;;;;;;5114307;28;20086;-73
2022/12/27 02:21:09;;;;;;;;;;;5.10;99.90;;;;;;5113720;28;20039;-74
2022/12/27 02:24:02;;;;;;;16.02;2.40;;;4.90;99.90;;;;;;5114554;27;19919;-74
2022/12/27 02:26:37;;;;;;;22.10;3.78;;;;;;;;;;5114590;28;20093;-75
2022/12/27 02:29:20;;;;;;;21.27;2.90;;;4.90;99.90;;;;;;5112616;28;20074;-74
2022/12/27 02:32:05;;;;;;;17.60;2.50;;;5.10;99.90;;;;;;5114455;28;20058;-73
2022/12/27 02:34:46;;;;;;;17.52;2.58;;;5.00;99.90;;;;;;5114438;28;20043;-73
2022/12/27 02:37:12;;;;;;;20.45;4.05;;;4.90;99.90;;;;;;5114159;28;20509;-73
2022/12/27 02:39:44;;;;;;;19.27;3.38;;;5.00;99.90;;;;;;5114471;28;20170;-72
2022/12/27 02:54:17;;;;;;;11.73;2.72;;;5.20;99.90;;;;;;5114047;28;20278;-73
2022/12/27 02:57:07;;;;;;;10.20;2.55;;;5.10;99.90;;;;;;5101185;28;20598;-74
2022/12/27 03:18:23;;;;;;;13.93;2.63;;;4.60;99.90;;;;;;5072803;28;20090;-75
2022/12/27 03:26:25;;;;;;;17.40;3.00;;;4.10;99.90;;;;;;5072712;28;20058;-73
2022/12/27 03:34:37;;;;;;;16.17;3.05;;;4.40;99.90;;;;;;5072484;28;20054;-73
2022/12/27 03:40:24;;;;;;;22.77;3.40;;;4.50;99.90;;;;;;5072456;28;20056;-71
2022/12/27 03:43:10;;;;;;;20.15;2.92;;;;;;;;;;5072394;28;20048;-70
2022/12/27 03:49:18;;;;;;;16.13;2.88;;;4.80;99.90;;;;;;5071213;28;20094;-72
2022/12/27 03:52:16;;;;;;;22.73;4.47;;;5.10;99.90;;;;;;5105046;28;20480;-71
2022/12/27 03:54:44;;;;;;;21.03;3.23;;;4.60;99.90;;;;;;5070970;28;20148;-71
2022/12/27 03:57:28;;;;;;;21.00;3.05;;;4.80;99.90;;;;;;5070864;28;20055;-70
2022/12/27 03:59:54;;;;;;;13.65;2.70;;;4.50;99.90;;;;;;5104495;28;20048;-73
2022/12/27 04:02:20;;;;;;;16.90;3.38;;;;;;;;;;5070783;28;20452;-73
2022/12/27 04:04:47;;;;;;;13.63;3.08;;;4.60;99.90;;;;;;5072156;28;20045;-73
2022/12/27 04:07:13;;;;;;;23.85;3.22;;;4.70;99.90;;;;;;5071941;28;20430;-74
2022/12/27 04:37:04;;;;;;;9.15;1.65;;;4.30;99.90;;;;;;5104694;28;20064;-76
2022/12/27 04:39:31;;;;;;;6.75;1.52;;;3.90;99.90;;;;;;5071685;28;20540;-76
2022/12/27 04:55:42;;;;;;;11.75;1.90;;;3.50;99.90;;;;;;5070513;28;20447;-73
2022/12/27 04:58:07;;;;;;;7.95;2.00;;;3.80;99.90;;;;;;5071206;28;20071;-75
2022/12/27 05:03:19;;;;;;;15.50;2.20;;;3.80;99.90;;;;;;5071465;28;20139;-75
2022/12/27 05:05:46;;;;;;;7.15;2.15;;;3.80;99.90;;;;;;5070176;28;20041;-73
2022/12/27 05:14:00;;;;;;;16.08;3.00;;;;;;;;;;5071167;28;20377;-73
2022/12/27 05:16:30;;;;;;;16.45;2.47;;;3.80;99.90;;;;;;5071377;28;20488;-75
2022/12/27 05:18:56;;;;;;;8.60;2.50;;;3.70;99.90;;;;;;5071569;28;20055;-74
2022/12/27 05:21:22;;;;;;;13.15;3.22;;;3.90;99.90;;;;;;5071223;28;20056;-73
2022/12/27 05:26:33;;;;;;;21.45;3.20;;;;;;;;;;5071045;28;20512;-74
2022/12/27 05:28:59;;;;;;;;;;;3.70;99.90;;;;;;5103665;28;20416;-74
2022/12/27 05:31:26;;;;;;;15.73;2.95;;;3.50;99.90;;;;;;5069947;28;20066;-75
2022/12/27 05:33:53;;;;;;;25.67;3.15;;;;;;;;;;5103986;28;20060;-74
2022/12/27 05:36:19;;;;;;;;;;;3.60;99.90;;;;;;5074494;28;20056;-75
2022/12/27 05:38:45;;;;;;;8.52;2.97;;;3.40;99.90;;;;;;5107602;28;20506;-75
2022/12/27 05:41:11;;;;;;;16.52;2.80;;;;;;;;;;5074497;28;20131;-75
2022/12/27 05:43:37;;;;;;;20.42;3.00;;;;;;;;;;5074681;28;20127;-75
2022/12/27 05:46:03;;;;;;;;;;;3.60;99.90;;;;;;5073808;28;20063;-74
2022/12/27 05:48:29;;;;;;;18.80;3.50;;;3.40;99.90;;;;;;5074503;28;19920;-74
2022/12/27 05:50:55;;;;;;;11.98;2.65;;;;;;;;;;5107458;28;20052;-75
2022/12/27 05:53:21;;;;;;;15.40;3.33;;;;;;;;;;5074504;28;20087;-74
2022/12/27 05:55:54;;;;;;;16.65;3.40;;;;;;;;;;5072943;28;20094;-75
2022/12/27 05:58:20;;;;;;;15.65;3.33;;;;;;;;;;5107277;28;20041;-75
2022/12/27 06:00:47;;;;;;;22.05;3.70;;;;;;;;;;5074450;28;20083;-75
2022/12/27 06:03:12;;;;;;;14.93;3.38;;;3.40;99.90;;;;;;5106876;28;20507;-75
2022/12/27 06:05:38;;;;;;;18.20;3.13;;;3.30;99.90;;;;;;5107056;28;20060;-74
2022/12/27 06:08:04;;;;;;;12.50;3.45;;;;;;;;;;5039763;28;20303;-74
2022/12/27 06:10:30;;;;;;;20.08;3.53;;;3.70;99.90;;;;;;5073773;28;20386;-74
2022/12/27 06:12:59;;;;;;;19.63;3.00;;;3.40;99.90;;;;;;5073024;28;20048;-75
2022/12/27 06:15:25;;;;;;;25.77;4.30;;;;;;;;;;5074089;28;20378;-74
2022/12/27 06:17:51;;;;;;;31.67;3.45;;;;;;;;;;5106936;28;20063;-75
2022/12/27 06:20:17;;;;;;;24.30;3.95;;;3.30;99.90;;;;;;5072873;28;20044;-74
2022/12/27 06:22:43;;;;;;;17.63;3.13;;;;;;;;;;5072747;28;20049;-75
2022/12/27 06:25:10;;;;;;;23.63;4.13;;;3.30;99.90;;;;;;5123347;27;20036;-73
2022/12/27 06:27:36;;;;;;;22.63;3.17;;;;;;;;;;5094380;28;20098;-75
2022/12/27 06:30:02;;;;;;;19.92;3.25;;;;;;;;;;5092975;28;20097;-74
2022/12/27 06:32:28;;;;;;;19.65;3.33;;;;;;;;;;5094085;28;20044;-74
2022/12/27 06:34:54;;;;;;;21.63;3.90;;;;;;;;;;5092694;28;20044;-74
2022/12/27 06:37:20;;;;;;;16.85;3.63;;;;;;;;;;5093929;28;20048;-75
2022/12/27 06:39:46;;;;;;;22.80;3.40;;;;;;;;;;5092281;28;20056;-75
2022/12/27 06:42:12;;;;;;;13.75;3.28;;;3.10;99.90;;;;;;5093952;28;20046;-75
2022/12/27 06:44:37;;;;;;;22.23;3.42;;;3.20;99.90;;;;;;5092727;28;20044;-75
2022/12/27 06:47:03;;;;;;;22.83;3.42;;;3.20;99.90;;;;;;5092613;28;20055;-74
2022/12/27 06:49:29;;;;;;;14.55;3.42;;;;;;;;;;5093715;28;20043;-75
2022/12/27 06:51:55;;;;;;;18.13;2.92;;;3.40;99.90;;;;;;5092510;28;20048;-74
2022/12/27 06:54:21;;;;;;;26.20;3.67;;;1.90;99.90;;;;;;5093121;28;20052;-76
2022/12/27 06:56:46;;;;;;;18.20;3.63;;;3.30;99.90;;;;;;5075440;28;20044;-75
2022/12/27 06:59:12;;;;;;;15.93;3.35;;;;;;;;;;5093474;28;20051;-76
2022/12/27 07:01:38;;;;;;;24.25;3.30;;;3.30;99.90;;;;;;5093480;28;20408;-76
2022/12/27 07:04:05;;;;;;;15.15;2.80;;;;;;;;;;5093367;28;20040;-76
2022/12/27 07:06:34;;;;;;;17.92;2.92;;;3.00;99.90;;;;;;5093282;28;20377;-76
2022/12/27 07:09:00;;;;;;;21.27;2.85;;;;;;;;;;5092877;28;20040;-75
2022/12/27 07:11:26;;;;;;;15.73;3.22;;;;;;;;;;5093017;28;20052;-76
2022/12/27 07:13:54;;;;;;;16.73;3.15;;;;;;;;;;5091866;28;20047;-76
2022/12/27 07:16:21;;;;;;;23.15;3.10;;;;;;;;;;5093178;28;20092;-76
2022/12/27 07:18:48;;;;;;;17.80;3.25;;;;;;;;;;5093085;28;20044;-76
2022/12/27 07:21:20;;;;;;;19.73;3.20;;;3.10;99.90;;;;;;5091752;28;20048;-76
2022/12/27 07:23:46;;;;;;;22.60;2.88;;;;;;;;;;5091801;28;20071;-76
2022/12/27 07:26:14;;;;;;;16.67;2.97;;;;;;;;;;5074939;28;20055;-76
2022/12/27 07:28:41;;;;;;;19.02;3.70;;;;;;;;;;5092842;28;20081;-75
2022/12/27 07:31:08;;;;;;;17.88;3.20;;;;;;;;;;5092867;28;20063;-75
2022/12/27 07:33:34;;;;;;;12.23;3.30;;;;;;;;;;5092786;28;20051;-75
2022/12/27 07:36:00;;;;;;;;;;;3.10;99.90;;;;;;5093182;28;20048;-76
2022/12/27 07:38:27;;;;;;;16.48;3.05;;;;;;;;;;5092435;28;19924;-77
2022/12/27 07:40:53;;;;;;;23.55;3.60;;;2.90;99.90;;;;;;5092710;28;20052;-76
2022/12/27 07:43:18;;;;;;;20.63;3.97;;;3.30;99.90;;;;;;5125420;27;20070;-75
2022/12/27 07:45:44;;;;;;;14.63;3.70;;;;;;;;;;5091512;28;20127;-75
2022/12/27 07:48:10;;;;;;;21.73;3.30;;;;;;;;;;5092471;28;20040;-75
2022/12/27 07:50:37;;;;;;;14.40;3.47;;;;;;;;;;5092607;28;20052;-76
2022/12/27 07:53:03;;;;;;;15.75;3.45;;;;;;;;;;5092366;28;20052;-75
2022/12/27 07:55:29;;;;;;;30.20;4.82;;;;;;;;;;5092445;28;20143;-76
2022/12/27 07:57:55;;;;;;;17.95;3.40;;;;;;;;;;5091974;28;20074;-76
2022/12/27 08:00:21;;;;;;;18.48;3.47;;;;;;;;;;5092362;28;20094;-76
2022/12/27 08:02:46;;;;;;;25.63;3.55;;;3.00;99.90;;;;;;5092377;28;20052;-76
2022/12/27 08:05:12;;;;;;;16.08;3.53;;;;;;;;;;5092342;28;20075;-76
2022/12/27 08:07:40;;;;;;;21.20;3.55;;;2.70;99.90;;;;;;5092022;28;20083;-76
2022/12/27 08:10:06;;;;;;;25.13;3.58;;;;;;;;;;5092206;28;20059;-76
2022/12/27 08:12:32;;;;;;;;;;;2.90;99.90;;;;;;5125727;27;20203;-76
2022/12/27 08:14:58;;;;;;;20.08;3.33;;;;;;;;;;5090947;28;19924;-76
2022/12/27 08:17:28;;;;;;;16.85;2.63;;;;;;;;;;5092315;28;20092;-77
2022/12/27 08:19:54;;;;;;;23.40;3.85;;;;;;;;;;5090856;28;20044;-76
2022/12/27 08:22:22;;;;;;;14.70;3.63;;;;;;;;;;5091886;28;20483;-76
2022/12/27 08:24:48;;;;;;;11.40;2.47;;;;;;;;;;5091093;28;20487;-76
2022/12/27 08:27:21;;;;;;;17.55;2.80;;;2.90;99.90;;;;;;5091602;28;20059;-76
2022/12/27 08:29:47;;;;;;;12.38;3.08;;;;;;;;;;5091712;28;20679;-76
2022/12/27 08:32:13;;;;;;;;;;;3.00;99.90;;;;;;5092387;28;20420;-76
2022/12/27 08:34:39;;;;;;;6.75;2.70;;;;;;;;;;5091629;28;19920;-76
2022/12/27 08:37:05;;;;;;;16.38;2.55;;;2.90;99.90;;;;;;5090835;28;20044;-76
2022/12/27 08:39:30;;;;;;;15.30;3.25;;;2.80;99.90;;;;;;5090658;28;20043;-76
2022/12/27 08:41:57;;;;;;;12.13;3.43;;;;;;;;;;5091936;28;20079;-75
2022/12/27 08:44:23;;;;;;;12.52;2.83;;;;;;;;;;5091959;28;20290;-77
2022/12/27 08:46:48;;;;;;;10.20;3.25;;;3.10;99.90;;;;;;5091837;28;20056;-75
2022/12/27 08:49:14;;;;;;;19.35;3.90;;;;;;;;;;5091437;28;20044;-76
2022/12/27 08:51:41;;;;;;;23.63;3.42;;;;;;;;;;5091838;28;20054;-76
2022/12/27 08:54:06;;;;;;;13.75;2.70;;;3.50;99.90;;;;;;5091788;28;20044;-75
2022/12/27 08:56:32;;;;;;;16.45;3.10;;;;;;;;;;5073867;28;20052;-76
2022/12/27 08:58:59;;;;;;;13.75;3.70;;;;;;;;;;5091703;28;20044;-76
2022/12/27 09:01:24;;;;;;;11.50;3.03;;;3.60;99.90;;;;;;5091644;28;20467;-75
2022/12/27 09:03:50;;;;;;;14.65;2.47;;;;;;;;;;5091485;28;20087;-76
2022/12/27 09:06:19;;;;;;;21.48;3.03;;;3.70;99.90;;;;;;5090434;28;20040;-75
2022/12/27 09:08:46;;;;;;;14.63;3.40;;;3.70;99.90;;;;;;5091595;28;20040;-76
2022/12/27 09:11:15;;;;;;;13.95;3.40;;;;;;;;;;5094584;28;20056;-76
2022/12/27 09:13:41;;;;;;;13.88;2.80;;;3.80;99.90;;;;;;5095419;28;20186;-76
2022/12/27 09:16:09;;;;;;;18.02;2.92;;;;;;;;;;5094196;28;20106;-76
2022/12/27 09:18:36;;;;;;;17.75;2.58;;;;;;;;;;5093879;28;20051;-76
2022/12/27 09:21:07;;;;;;;9.52;2.20;;;3.90;99.90;;;;;;5128467;27;20048;-76
2022/12/27 09:23:33;;;;;;;16.92;3.42;;;3.90;99.90;;;;;;5094015;28;20055;-76
2022/12/27 09:26:07;;;;;;;20.00;3.22;;;3.90;99.90;;;;;;5094163;28;20138;-75
2022/12/27 09:28:33;;;;;;;11.45;2.40;;;;;;;;;;5094785;28;20098;-75
2022/12/27 09:30:59;;;;;;;26.23;4.22;;;;;;;;;;5095192;28;20052;-75
2022/12/27 09:33:26;;;;;;;12.82;2.55;;;3.90;99.90;;;;;;5094817;28;20090;-76
2022/12/27 09:35:52;;;;;;;15.02;2.65;;;4.30;99.90;;;;;;5094198;28;20138;-75
2022/12/27 09:38:18;;;;;;;21.03;2.97;;;;;;;;;;5077101;28;20127;-76
2022/12/27 09:40:55;;;;;;;14.18;3.17;;;4.50;99.90;;;;;;5094690;28;20607;-76
2022/12/27 09:43:24;;;;;;;14.25;2.65;;;;;;;;;;5094811;28;20047;-75
2022/12/27 09:45:54;;;;;;;16.65;3.00;;;4.40;99.90;;;;;;5094838;28;20050;-76
2022/12/27 09:48:26;;;;;;;15.38;2.10;;;;;;;;;;5076265;28;20080;-76
2022/12/27 09:50:54;;;;;;;14.43;2.10;;;;;;;;;;5094823;28;20052;-76
2022/12/27 09:53:43;;;;;;;8.85;2.15;;;4.50;99.90;;;;;;5094738;28;20131;-75
2022/12/27 09:56:12;;;;;;;8.85;2.42;;;4.70;99.90;;;;;;5094761;28;20051;-76
2022/12/27 09:58:51;;;;;;;15.70;2.78;;;;;;;;;;5094746;28;20044;-76
2022/12/27 10:01:46;;;;;;;7.10;1.88;;;4.70;99.90;;;;;;5094595;28;20054;-75
2022/12/27 10:04:13;;;;;;;10.82;2.20;;;;;;;;;;5093716;28;20056;-75
2022/12/27 10:06:46;;;;;;;12.23;2.05;;;5.20;99.90;;;;;;5094158;28;20412;-74
2022/12/27 10:09:17;;;;;;;11.88;2.33;;;;;;;;;;5094406;28;20365;-73
2022/12/27 10:12:11;;;;;;;14.13;2.67;;;4.90;99.90;;;;;;5093224;28;20054;-74
2022/12/27 10:14:42;;;;;;;7.90;2.40;;;5.30;99.90;;;;;;5094578;28;20055;-74
2022/12/27 10:17:24;;;;;;;11.77;2.45;;;5.30;99.90;;;;;;5093366;28;20060;-75
2022/12/27 10:19:58;;;;;;;13.77;2.65;;;;;;;;;;5094346;28;20048;-74
2022/12/27 10:22:35;;;;;;;10.50;2.10;;;5.60;99.90;;;;;;5094013;28;20158;-73
2022/12/27 10:25:09;;;;;;;11.40;2.05;;;5.80;99.90;;;;;;5094232;28;20043;-71
2022/12/27 10:27:36;;;;;;;18.10;3.05;;;5.80;99.90;;;;;;5094118;28;20068;-74
2022/12/27 10:30:06;;;;;;;9.02;2.35;;;;;;;;;;5092699;28;20491;-74
2022/12/27 10:32:31;;;;;;;11.20;2.47;;;5.70;99.90;;;;;;5093729;28;20051;-73
2022/12/27 10:35:01;;;;;;;14.77;3.45;;;6.10;99.90;;;;;;5076134;28;20044;-74
2022/12/27 10:37:27;;;;;;;9.93;2.15;;;6.30;99.90;;;;;;5093561;28;20562;-73
2022/12/27 10:39:55;;;;;;;;;;;6.00;99.90;;;;;;5093363;28;20052;-73
2022/12/27 10:42:40;;;;;;;7.70;2.17;;;6.30;99.90;;;;;;5092779;28;19932;-74
2022/12/27 10:45:27;;;;;;;15.48;1.80;;;6.00;99.90;;;;;;5093621;28;20123;-73
2022/12/27 10:47:56;;;;;;;12.80;2.20;;;6.30;99.90;;;;;;5092110;28;20036;-73
2022/12/27 10:50:25;;;;;;;17.38;3.55;;;6.00;99.90;;;;;;5093640;28;20040;-73
2022/12/27 10:52:51;;;;;;;12.10;2.88;;;6.00;99.90;;;;;;5093553;28;20054;-73
2022/12/27 10:55:36;;;;;;;;;;;5.80;99.90;;;;;;5093794;28;20450;-72
2022/12/27 10:58:30;;;;;;;7.18;3.05;;;6.30;99.90;;;;;;5092481;28;19996;-73
2022/12/27 11:00:56;;;;;;;10.57;1.83;;;6.00;99.90;;;;;;5093199;28;20055;-74
2022/12/27 11:03:22;;;;;;;;;;;6.60;99.90;;;;;;5093880;28;20059;-72
2022/12/27 11:06:03;;;;;;;4.95;1.88;;;6.70;99.90;;;;;;5092055;28;19954;-69
2022/12/27 11:08:29;;;;;;;16.67;3.25;;;7.00;99.90;;;;;;5093299;28;20508;-73
2022/12/27 11:11:12;;;;;;;17.92;2.45;;;;;;;;;;5093272;28;20052;-72
2022/12/27 11:13:38;;;;;;;8.52;2.33;;;6.80;99.90;;;;;;5093174;28;20047;-75
2022/12/27 11:16:04;;;;;;;12.00;2.35;;;7.00;99.90;;;;;;5092922;28;20044;-74
2022/12/27 11:18:35;;;;;;;9.25;2.30;;;6.70;99.90;;;;;;5093158;28;20055;-73
2022/12/27 11:21:02;;;;;;;9.85;2.38;;;;;;;;;;5093076;28;20048;-72
2022/12/27 11:23:39;;;;;;;12.07;2.03;;;6.80;99.90;;;;;;5092985;28;20105;-73
2022/12/27 11:26:06;;;;;;;11.13;2.20;;;6.90;99.90;;;;;;5093042;28;20117;-71
2022/12/27 11:28:38;;;;;;;16.33;3.42;;;6.90;99.90;;;;;;5092604;28;20044;-72
2022/12/27 11:31:07;;;;;;;6.72;2.80;;;7.00;99.90;;;;;;5074986;28;20044;-72
2022/12/27 11:33:36;;;;;;;12.95;1.73;;;7.00;99.90;;;;;;5092251;28;20070;-72
2022/12/27 11:36:03;;;;;;;13.50;2.05;;;7.20;99.90;;;;;;5092880;28;20130;-71
2022/12/27 11:38:33;;;;;;;13.52;2.17;;;6.70;99.90;;;;;;5092527;28;20048;-75
2022/12/27 11:41:05;;;;;;;6.15;1.58;;;6.80;99.90;;;;;;5092713;28;20545;-71
2022/12/27 11:43:46;;;;;;;11.93;2.00;;;6.50;99.90;;;;;;5092475;28;20093;-72
2022/12/27 11:46:44;;;;;;;10.32;2.33;;;6.90;99.90;;;;;;5092713;28;20044;-73
2022/12/27 11:49:22;;;;;;;3.78;1.75;;;6.90;99.90;;;;;;5092645;28;20048;-74
2022/12/27 11:52:23;;;;;;;4.57;2.03;;;6.70;99.90;;;;;;5092654;28;20079;-72
2022/12/27 11:55:12;;;;;;;12.52;2.42;;;6.90;99.90;;;;;;5085054;28;20060;-72
2022/12/27 11:57:54;;;;;;;18.83;2.30;;;7.30;99.90;;;;;;5074382;28;20055;-73
2022/12/27 12:00:22;;;;;;;9.25;2.60;;;7.10;99.90;;;;;;5092544;28;20114;-73
2022/12/27 12:03:15;;;;;;;23.95;2.05;;;6.90;99.90;;;;;;5092385;28;20294;-72
2022/12/27 12:05:48;;;;;;;15.85;2.15;;;7.60;99.90;;;;;;5092362;28;20110;-72
2022/12/27 12:08:13;;;;;;;8.55;2.13;;;7.40;99.90;;;;;;5092403;28;20039;-72
2022/12/27 12:10:45;;;;;;;13.40;1.70;;;7.40;99.90;;;;;;5092548;28;20399;-72
2022/12/27 12:13:32;;;;;;;10.57;2.40;;;7.40;99.90;;;;;;5092220;28;20150;-72
2022/12/27 12:16:55;;;;;;;5.07;2.05;;;7.30;99.90;;;;;;5092300;28;20048;-72
2022/12/27 12:19:54;;;;;;;14.73;2.83;;;6.90;99.90;;;;;;5052545;28;20549;-72
2022/12/27 12:22:43;;;;;;;8.63;2.05;;;7.20;99.90;;;;;;5069383;28;20044;-73
2022/12/27 12:25:42;;;;;;;14.02;2.03;;;7.20;99.90;;;;;;5091617;28;20377;-75
2022/12/27 12:28:41;;;;;;;17.48;2.50;;;7.40;99.90;;;;;;5091574;28;20091;-72
2022/12/27 12:31:45;;;;;;;7.80;2.05;;;7.40;99.90;;;;;;5092032;28;20052;-71
2022/12/27 12:34:46;;;;;;;12.70;2.17;;;7.10;99.90;;;;;;5092060;28;20445;-73
2022/12/27 12:37:34;;;;;;;13.90;2.25;;;7.30;99.90;;;;;;5092301;28;20052;-72
2022/12/27 12:39:59;;;;;;;;;;;7.30;99.90;;;;;;5092462;28;20047;-72
2022/12/27 12:42:28;;;;;;;9.07;1.90;;;7.30;99.90;;;;;;5091733;28;19919;-72
2022/12/27 12:45:30;;;;;;;10.73;2.60;;;7.20;99.90;;;;;;5094468;28;20044;-71
2022/12/27 12:48:14;;;;;;;20.55;3.40;;;7.10;99.90;;;;;;5094692;28;20392;-72
2022/12/27 12:51:05;;;;;;;10.32;3.22;;;7.00;99.90;;;;;;5095981;28;20048;-73
2022/12/27 12:53:40;;;;;;;10.95;1.83;;;7.00;99.90;;;;;;5095963;28;20055;-72
2022/12/27 12:56:06;;;;;;;12.93;3.42;;;7.20;99.90;;;;;;5095355;28;20515;-72
2022/12/27 12:58:51;;;;;;;8.88;2.55;;;7.00;99.90;;;;;;5095918;28;20052;-71
2022/12/27 13:01:35;;;;;;;18.25;2.40;;;7.30;99.90;;;;;;5095830;28;20078;-72
2022/12/27 13:04:25;;;;;;;4.97;1.90;;;7.40;99.90;;;;;;5095776;28;20048;-72
2022/12/27 13:07:20;;;;;;;14.13;2.33;;;7.40;99.90;;;;;;5095716;28;20052;-72
2022/12/27 13:09:55;;;;;;;14.75;2.03;;;7.30;99.90;;;;;;5094117;28;20059;-73
2022/12/27 13:12:29;;;;;;;5.85;1.80;;;7.30;99.90;;;;;;5095603;28;20130;-73
2022/12/27 13:15:23;;;;;;;10.68;3.05;;;7.60;99.90;;;;;;5094612;28;20078;-73
2022/12/27 13:18:09;;;;;;;12.93;2.50;;;7.50;99.90;;;;;;5095401;28;20060;-73
2022/12/27 13:20:53;;;;;;;4.50;1.80;;;7.40;99.90;;;;;;5095519;28;20048;-72
2022/12/27 13:23:39;;;;;;;10.43;2.22;;;7.20;99.90;;;;;;5095476;28;20044;-73
2022/12/27 13:26:51;;;;;;;19.20;2.85;;;7.40;99.90;;;;;;5094177;28;20044;-72
2022/12/27 13:29:50;;;;;;;9.95;2.30;;;7.10;99.90;;;;;;5071963;28;20092;-72
2022/12/27 13:32:30;;;;;;;9.18;2.58;;;7.00;99.90;;;;;;5095246;28;20484;-73
2022/12/27 13:35:31;;;;;;;16.80;2.20;;;6.70;99.90;;;;;;5095236;28;20104;-72
2022/12/27 13:38:44;;;;;;;5.68;1.67;;;6.90;99.90;;;;;;5084578;28;20142;-72
2022/12/27 13:41:21;;;;;;;9.80;2.08;;;6.90;99.90;;;;;;5074409;28;20095;-73
2022/12/27 13:44:12;;;;;;;8.38;2.67;;;6.80;99.90;;;;;;5095074;28;20048;-72
2022/12/27 13:47:13;;;;;;;9.85;1.70;;;6.60;99.90;;;;;;5095075;28;20087;-73
2022/12/27 13:49:53;;;;;;;8.20;2.08;;;6.90;99.90;;;;;;5082154;28;20064;-73
2022/12/27 13:52:31;;;;;;;14.73;3.03;;;6.50;99.90;;;;;;5093548;28;20054;-73
2022/12/27 13:55:19;;;;;;;11.63;3.08;;;6.30;99.90;;;;;;5094643;28;20048;-73
2022/12/27 13:58:07;;;;;;;8.65;2.63;;;6.40;99.90;;;;;;5094284;28;20044;-72
2022/12/27 14:01:05;;;;;;;6.40;2.30;;;6.30;99.90;;;;;;5094748;28;20120;-72
2022/12/27 14:03:49;;;;;;;11.95;3.30;;;6.40;99.90;;;;;;5085268;28;20454;-75
2022/12/27 14:06:46;;;;;;;13.82;3.05;;;6.20;99.90;;;;;;5094593;28;20492;-73
2022/12/27 14:09:23;;;;;;;12.80;3.47;;;6.50;99.90;;;;;;5094234;28;20044;-73
2022/12/27 14:12:02;;;;;;;12.07;2.67;;;6.20;99.90;;;;;;5094465;28;20486;-72
2022/12/27 14:14:29;;;;;;;14.15;2.63;;;6.20;99.90;;;;;;5094306;28;20052;-73
2022/12/27 14:17:13;;;;;;;12.07;2.95;;;6.50;99.90;;;;;;5094529;28;20389;-73
2022/12/27 14:19:38;;;;;;;8.77;2.45;;;6.70;99.90;;;;;;5094360;28;20077;-73
2022/12/27 14:22:29;;;;;;;14.20;2.90;;;6.50;99.90;;;;;;5093238;28;20047;-73
2022/12/27 14:25:03;;;;;;;13.70;3.30;;;6.50;99.90;;;;;;5094275;28;20114;-73
2022/12/27 14:27:50;;;;;;;14.93;3.10;;;;;;;;;;5093776;28;20044;-71
2022/12/27 14:31:03;;;;;;;13.45;3.60;;;6.40;99.90;;;;;;5094143;28;20105;-73
2022/12/27 14:34:03;;;;;;;9.80;3.28;;;6.30;99.90;;;;;;5069844;28;20059;-74
2022/12/27 14:37:04;;;;;;;13.38;3.40;;;5.90;99.90;;;;;;5093942;28;20096;-73
2022/12/27 14:39:41;;;;;;;8.60;3.08;;;5.90;99.90;;;;;;5081636;28;20117;-73
2022/12/27 14:42:45;;;;;;;9.60;3.35;;;6.10;99.90;;;;;;5092837;28;20071;-74
2022/12/27 14:45:31;;;;;;;15.75;4.30;;;6.10;99.90;;;;;;5093873;28;20052;-74
2022/12/27 14:48:00;;;;;;;11.03;3.43;;;6.10;99.90;;;;;;5093859;28;20080;-73
2022/12/27 14:51:03;;;;;;;16.35;3.58;;;6.20;99.90;;;;;;5093762;28;20148;-73
2022/12/27 14:53:43;;;;;;;18.75;5.93;;;6.10;99.90;;;;;;5093184;28;20094;-73
2022/12/27 14:56:15;;;;;;;15.50;4.53;;;6.30;99.90;;;;;;5075819;28;20090;-73
2022/12/27 14:59:02;;;;;;;15.73;5.05;;;5.90;99.90;;;;;;5093734;28;20127;-74
2022/12/27 15:01:36;;;;;;;;;;;6.30;99.90;;;;;;5094153;28;20048;-73
2022/12/27 15:04:27;;;;;;;17.35;4.65;;;6.10;99.90;;;;;;5093462;28;20015;-74
2022/12/27 15:07:02;;;;;;;13.93;5.68;;;6.30;99.90;;;;;;5092689;28;20047;-72
2022/12/27 15:09:49;;;;;;;20.38;5.45;;;6.30;99.90;;;;;;5092928;28;20137;-72
2022/12/27 15:12:21;;;;;;;21.50;4.55;;;6.10;99.90;;;;;;5093428;28;20055;-73
2022/12/27 15:15:00;;;;;;;13.65;5.15;;;5.90;99.90;;;;;;5093296;28;20090;-74
2022/12/27 15:18:02;;;;;;;16.52;5.07;;;5.80;99.90;;;;;;5093264;28;20116;-73
2022/12/27 15:20:41;;;;;;;17.63;5.07;;;5.90;99.90;;;;;;5091789;28;20044;-74
2022/12/27 15:23:21;;;;;;;15.50;5.32;;;5.70;99.90;;;;;;5093120;28;20567;-74
2022/12/27 15:26:16;;;;;;;17.17;5.40;;;5.80;99.90;;;;;;5091917;28;20127;-74
2022/12/27 15:28:54;;;;;;;20.88;5.80;;;5.70;99.90;;;;;;5089330;28;20499;-74
2022/12/27 15:31:26;;;;;;;23.08;6.07;;;5.90;99.90;;;;;;5092712;28;20480;-73
2022/12/27 15:34:10;;;;;;;19.38;6.10;;;5.80;99.90;;;;;;5093000;28;20063;-75
2022/12/27 15:36:45;;;;;;;20.40;6.40;;;5.80;99.90;;;;;;5092712;28;20048;-74